createdAt,value
2017-10-17T00:00:01.144Z,11.96
2017-10-17T00:00:05.672Z,11.96
2017-10-17T00:00:10.306Z,11.9
2017-10-17T00:00:14.536Z,11.94
2017-10-17T00:00:18.767Z,11.94
2017-10-17T00:00:23.024Z,11.96
2017-10-17T00:00:27.261Z,11.94
2017-10-17T00:00:31.618Z,11.94
2017-10-17T00:00:36.120Z,11.84
2017-10-17T00:00:40.353Z,11.94
2017-10-17T00:00:44.322Z,11.88
2017-10-17T00:00:48.421Z,11.93
2017-10-17T00:00:52.522Z,11.93
2017-10-17T00:00:56.355Z,11.9
2017-10-17T00:01:00.447Z,11.88
2017-10-17T00:01:04.813Z,11.96
2017-10-17T00:01:09.044Z,11.93
2017-10-17T00:01:13.541Z,11.81
2017-10-17T00:01:17.641Z,11.88
2017-10-17T00:01:22.007Z,11.87
2017-10-17T00:01:26.103Z,11.88
2017-10-17T00:01:30.333Z,11.88
2017-10-17T00:01:34.830Z,11.88
2017-10-17T00:01:39.198Z,11.94
2017-10-17T00:01:43.300Z,11.96
2017-10-17T00:01:47.536Z,11.84
2017-10-17T00:01:51.507Z,11.81
2017-10-17T00:01:55.474Z,11.94
2017-10-17T00:01:59.835Z,11.75
2017-10-17T00:02:03.813Z,11.81
2017-10-17T00:02:07.785Z,11.88
2017-10-17T00:02:12.276Z,11.81
2017-10-17T00:02:16.378Z,11.81
2017-10-17T00:02:20.633Z,11.78
2017-10-17T00:02:25.152Z,11.75
2017-10-17T00:02:29.252Z,11.79
2017-10-17T00:02:33.223Z,11.78
2017-10-17T00:02:37.588Z,11.88
2017-10-17T00:02:41.819Z,11.81
2017-10-17T00:02:45.918Z,11.84
2017-10-17T00:02:50.017Z,11.81
2017-10-17T00:02:54.115Z,11.72
2017-10-17T00:02:58.216Z,11.78
2017-10-17T00:03:02.427Z,11.78
2017-10-17T00:03:06.395Z,11.82
2017-10-17T00:03:10.884Z,11.87
2017-10-17T00:03:15.243Z,11.87
2017-10-17T00:03:19.492Z,11.78
2017-10-17T00:03:23.725Z,11.79
2017-10-17T00:03:28.084Z,11.82
2017-10-17T00:03:32.051Z,11.85
2017-10-17T00:03:36.288Z,11.75
2017-10-17T00:03:40.776Z,11.79
2017-10-17T00:03:44.878Z,11.88
2017-10-17T00:03:48.711Z,11.79
2017-10-17T00:03:52.942Z,11.77
2017-10-17T00:03:56.912Z,11.74
2017-10-17T00:04:00.884Z,11.77
2017-10-17T00:04:04.991Z,11.77
2017-10-17T00:04:09.227Z,11.72
2017-10-17T00:04:13.459Z,11.77
2017-10-17T00:04:17.954Z,11.77
2017-10-17T00:04:22.318Z,11.85
2017-10-17T00:04:26.682Z,11.77
2017-10-17T00:04:31.058Z,11.78
2017-10-17T00:04:35.281Z,11.75
2017-10-17T00:04:39.509Z,11.81
2017-10-17T00:04:44.023Z,11.75
2017-10-17T00:04:48.298Z,11.79
2017-10-17T00:04:52.408Z,11.75
2017-10-17T00:04:56.507Z,11.77
2017-10-17T00:05:00.741Z,11.77
2017-10-17T00:05:05.275Z,11.72
2017-10-17T00:05:09.509Z,11.74
2017-10-17T00:05:13.613Z,11.74
2017-10-17T00:05:17.972Z,11.7
2017-10-17T00:05:22.071Z,11.69
2017-10-17T00:05:26.432Z,11.69
2017-10-17T00:05:30.696Z,11.66
2017-10-17T00:05:34.935Z,11.66
2017-10-17T00:05:39.300Z,11.7
2017-10-17T00:05:43.538Z,11.74
2017-10-17T00:05:47.768Z,11.62
2017-10-17T00:05:51.872Z,11.66
2017-10-17T00:05:56.110Z,11.7
2017-10-17T00:06:00.079Z,11.67
2017-10-17T00:06:04.315Z,11.69
2017-10-17T00:06:08.815Z,11.64
2017-10-17T00:06:12.786Z,11.69
2017-10-17T00:06:16.887Z,11.69
2017-10-17T00:06:20.988Z,11.64
2017-10-17T00:06:25.218Z,11.77
2017-10-17T00:06:29.454Z,11.72
2017-10-17T00:06:33.952Z,11.63
2017-10-17T00:06:38.318Z,11.63
2017-10-17T00:06:42.415Z,11.67
2017-10-17T00:06:46.516Z,11.72
2017-10-17T00:06:50.616Z,11.67
2017-10-17T00:06:54.846Z,11.66
2017-10-17T00:06:58.954Z,11.62
2017-10-17T00:07:03.562Z,11.63
2017-10-17T00:07:07.528Z,11.62
2017-10-17T00:07:11.762Z,11.59
2017-10-17T00:07:16.123Z,11.72
2017-10-17T00:07:20.227Z,11.72
2017-10-17T00:07:24.719Z,11.67
2017-10-17T00:07:28.822Z,11.66
2017-10-17T00:07:33.062Z,11.67
2017-10-17T00:07:37.288Z,11.66
2017-10-17T00:07:41.781Z,11.63
2017-10-17T00:07:46.145Z,11.59
2017-10-17T00:07:50.647Z,11.62
2017-10-17T00:07:54.881Z,11.7
2017-10-17T00:07:58.976Z,11.66
2017-10-17T00:08:03.391Z,11.66
2017-10-17T00:08:07.514Z,11.69
2017-10-17T00:08:11.878Z,11.74
2017-10-17T00:08:16.381Z,11.69
2017-10-17T00:08:20.753Z,11.7
2017-10-17T00:08:24.851Z,11.6
2017-10-17T00:08:28.947Z,11.67
2017-10-17T00:08:33.182Z,11.69
2017-10-17T00:08:37.551Z,11.64
2017-10-17T00:08:41.782Z,11.7
2017-10-17T00:08:45.619Z,11.69
2017-10-17T00:08:49.849Z,11.7
2017-10-17T00:08:54.082Z,11.6
2017-10-17T00:08:58.449Z,11.6
2017-10-17T00:09:02.797Z,11.67
2017-10-17T00:09:06.635Z,11.66
2017-10-17T00:09:10.994Z,11.59
2017-10-17T00:09:14.957Z,11.62
2017-10-17T00:09:19.586Z,11.63
2017-10-17T00:09:23.811Z,11.64
2017-10-17T00:09:27.912Z,11.67
2017-10-17T00:09:32.532Z,11.64
2017-10-17T00:09:36.631Z,11.64
2017-10-17T00:09:40.996Z,11.62
2017-10-17T00:09:45.378Z,11.69
2017-10-17T00:09:49.340Z,11.6
2017-10-17T00:09:53.705Z,11.56
2017-10-17T00:09:58.062Z,11.62
2017-10-17T00:10:02.511Z,11.64
2017-10-17T00:10:06.742Z,11.6
2017-10-17T00:10:11.101Z,11.57
2017-10-17T00:10:15.459Z,11.6
2017-10-17T00:10:19.955Z,11.59
2017-10-17T00:10:24.188Z,11.62
2017-10-17T00:10:28.686Z,11.57
2017-10-17T00:10:32.655Z,11.62
2017-10-17T00:10:36.752Z,11.56
2017-10-17T00:10:40.884Z,11.6
2017-10-17T00:10:44.991Z,11.57
2017-10-17T00:10:49.097Z,11.6
2017-10-17T00:10:53.466Z,11.56
2017-10-17T00:10:57.726Z,11.6
2017-10-17T00:11:02.226Z,11.59
2017-10-17T00:11:06.337Z,11.6
2017-10-17T00:11:10.443Z,11.62
2017-10-17T00:11:14.535Z,11.64
2017-10-17T00:11:18.762Z,11.56
2017-10-17T00:11:23.302Z,11.54
2017-10-17T00:11:27.670Z,11.54
2017-10-17T00:11:31.913Z,11.53
2017-10-17T00:11:36.141Z,11.56
2017-10-17T00:11:40.404Z,11.48
2017-10-17T00:11:44.367Z,11.54
2017-10-17T00:11:48.737Z,11.53
2017-10-17T00:11:52.698Z,11.63
2017-10-17T00:11:56.531Z,11.62
2017-10-17T00:12:00.892Z,11.6
2017-10-17T00:12:04.732Z,11.53
2017-10-17T00:12:08.816Z,11.54
2017-10-17T00:12:12.922Z,11.59
2017-10-17T00:12:17.163Z,11.6
2017-10-17T00:12:21.255Z,11.51
2017-10-17T00:12:25.352Z,11.57
2017-10-17T00:12:29.710Z,11.53
2017-10-17T00:12:33.812Z,11.53
2017-10-17T00:12:37.797Z,11.51
2017-10-17T00:12:42.160Z,11.54
2017-10-17T00:12:46.517Z,11.53
2017-10-17T00:12:50.612Z,11.62
2017-10-17T00:12:54.978Z,11.6
2017-10-17T00:12:59.073Z,11.48
2017-10-17T00:13:03.295Z,11.49
2017-10-17T00:13:07.127Z,11.63
2017-10-17T00:13:11.359Z,11.53
2017-10-17T00:13:15.598Z,11.6
2017-10-17T00:13:19.844Z,11.6
2017-10-17T00:13:24.073Z,11.56
2017-10-17T00:13:28.301Z,11.53
2017-10-17T00:13:32.527Z,11.62
2017-10-17T00:13:36.892Z,11.63
2017-10-17T00:13:40.985Z,11.53
2017-10-17T00:13:45.484Z,11.51
2017-10-17T00:13:49.975Z,11.54
2017-10-17T00:13:53.940Z,11.59
2017-10-17T00:13:58.170Z,11.56
2017-10-17T00:14:02.442Z,11.62
2017-10-17T00:14:06.801Z,11.45
2017-10-17T00:14:11.032Z,11.49
2017-10-17T00:14:15.141Z,11.63
2017-10-17T00:14:19.112Z,11.49
2017-10-17T00:14:23.338Z,11.54
2017-10-17T00:14:27.318Z,11.53
2017-10-17T00:14:31.274Z,11.54
2017-10-17T00:14:35.372Z,11.62
2017-10-17T00:14:39.206Z,11.63
2017-10-17T00:14:43.569Z,11.59
2017-10-17T00:14:47.932Z,11.53
2017-10-17T00:14:52.161Z,11.54
2017-10-17T00:14:56.541Z,11.6
2017-10-17T00:15:00.769Z,11.46
2017-10-17T00:15:04.872Z,11.62
2017-10-17T00:15:09.112Z,11.64
2017-10-17T00:15:13.475Z,11.62
2017-10-17T00:15:17.448Z,11.53
2017-10-17T00:15:21.681Z,11.53
2017-10-17T00:15:25.914Z,11.6
2017-10-17T00:15:30.009Z,11.56
2017-10-17T00:15:34.368Z,11.51
2017-10-17T00:15:38.470Z,11.53
2017-10-17T00:15:42.702Z,11.6
2017-10-17T00:15:47.189Z,11.59
2017-10-17T00:15:51.545Z,11.56
2017-10-17T00:15:55.922Z,11.56
2017-10-17T00:15:59.890Z,11.54
2017-10-17T00:16:04.472Z,11.6
2017-10-17T00:16:08.592Z,11.48
2017-10-17T00:16:12.686Z,11.54
2017-10-17T00:16:17.051Z,11.45
2017-10-17T00:16:21.426Z,11.53
2017-10-17T00:16:25.527Z,11.56
2017-10-17T00:16:30.014Z,11.44
2017-10-17T00:16:34.121Z,11.48
2017-10-17T00:16:38.347Z,11.44
2017-10-17T00:16:42.575Z,11.6
2017-10-17T00:16:47.069Z,11.42
2017-10-17T00:16:51.170Z,11.45
2017-10-17T00:16:55.137Z,11.46
2017-10-17T00:16:59.369Z,11.54
2017-10-17T00:17:03.520Z,11.49
2017-10-17T00:17:07.883Z,11.42
2017-10-17T00:17:12.104Z,11.56
2017-10-17T00:17:16.459Z,11.46
2017-10-17T00:17:20.839Z,11.53
2017-10-17T00:17:24.930Z,11.54
2017-10-17T00:17:29.445Z,11.63
2017-10-17T00:17:33.668Z,11.54
2017-10-17T00:17:37.928Z,11.45
2017-10-17T00:17:42.152Z,11.44
2017-10-17T00:17:46.383Z,11.54
2017-10-17T00:17:50.621Z,11.42
2017-10-17T00:17:54.977Z,11.49
2017-10-17T00:17:59.342Z,11.63
2017-10-17T00:18:03.432Z,11.49
2017-10-17T00:18:07.657Z,11.46
2017-10-17T00:18:11.760Z,11.49
2017-10-17T00:18:15.867Z,11.53
2017-10-17T00:18:20.101Z,11.57
2017-10-17T00:18:24.201Z,11.51
2017-10-17T00:18:28.307Z,11.53
2017-10-17T00:18:32.676Z,11.46
2017-10-17T00:18:36.782Z,11.49
2017-10-17T00:18:40.879Z,11.49
2017-10-17T00:18:44.974Z,11.46
2017-10-17T00:18:48.945Z,11.48
2017-10-17T00:18:52.785Z,11.46
2017-10-17T00:18:56.893Z,11.42
2017-10-17T00:19:00.992Z,11.45
2017-10-17T00:19:05.426Z,11.48
2017-10-17T00:19:09.391Z,11.44
2017-10-17T00:19:13.495Z,11.48
2017-10-17T00:19:17.462Z,11.57
2017-10-17T00:19:21.704Z,11.48
2017-10-17T00:19:26.061Z,11.51
2017-10-17T00:19:30.155Z,11.48
2017-10-17T00:19:34.382Z,11.51
2017-10-17T00:19:38.613Z,11.53
2017-10-17T00:19:42.979Z,11.42
2017-10-17T00:19:47.081Z,11.49
2017-10-17T00:19:51.309Z,11.49
2017-10-17T00:19:55.799Z,11.51
2017-10-17T00:20:00.161Z,11.46
2017-10-17T00:20:04.394Z,11.49
2017-10-17T00:20:08.494Z,11.48
2017-10-17T00:20:12.591Z,11.41
2017-10-17T00:20:16.949Z,11.48
2017-10-17T00:20:20.917Z,11.46
2017-10-17T00:20:25.019Z,11.46
2017-10-17T00:20:29.255Z,11.54
2017-10-17T00:20:33.346Z,11.44
2017-10-17T00:20:37.318Z,11.48
2017-10-17T00:20:41.549Z,11.44
2017-10-17T00:20:45.775Z,11.42
2017-10-17T00:20:49.870Z,11.46
2017-10-17T00:20:53.983Z,11.53
2017-10-17T00:20:57.950Z,11.51
2017-10-17T00:21:02.181Z,11.53
2017-10-17T00:21:06.150Z,11.48
2017-10-17T00:21:10.386Z,11.46
2017-10-17T00:21:14.609Z,11.45
2017-10-17T00:21:18.706Z,11.54
2017-10-17T00:21:22.939Z,11.48
2017-10-17T00:21:26.900Z,11.49
2017-10-17T00:21:31.132Z,11.59
2017-10-17T00:21:35.492Z,11.53
2017-10-17T00:21:39.595Z,11.44
2017-10-17T00:21:43.835Z,11.46
2017-10-17T00:21:47.933Z,11.53
2017-10-17T00:21:52.325Z,11.54
2017-10-17T00:21:56.538Z,11.54
2017-10-17T00:22:00.784Z,11.54
2017-10-17T00:22:05.218Z,11.54
2017-10-17T00:22:09.573Z,11.48
2017-10-17T00:22:13.542Z,11.48
2017-10-17T00:22:17.770Z,11.49
2017-10-17T00:22:22.022Z,11.48
2017-10-17T00:22:26.390Z,11.42
2017-10-17T00:22:30.487Z,11.42
2017-10-17T00:22:34.724Z,11.51
2017-10-17T00:22:39.113Z,11.53
2017-10-17T00:22:43.082Z,11.46
2017-10-17T00:22:47.180Z,11.53
2017-10-17T00:22:51.550Z,11.53
2017-10-17T00:22:55.788Z,11.54
2017-10-17T00:23:00.020Z,11.46
2017-10-17T00:23:04.253Z,11.48
2017-10-17T00:23:08.223Z,11.48
2017-10-17T00:23:12.711Z,11.53
2017-10-17T00:23:16.945Z,11.38
2017-10-17T00:23:20.911Z,11.54
2017-10-17T00:23:25.142Z,11.54
2017-10-17T00:23:29.370Z,11.48
2017-10-17T00:23:34.002Z,11.42
2017-10-17T00:23:38.241Z,11.51
2017-10-17T00:23:42.348Z,11.42
2017-10-17T00:23:46.715Z,11.54
2017-10-17T00:23:50.953Z,11.45
2017-10-17T00:23:55.048Z,11.44
2017-10-17T00:23:59.149Z,11.45
2017-10-17T00:24:03.248Z,11.44
2017-10-17T00:24:07.354Z,11.39
2017-10-17T00:24:11.324Z,11.42
2017-10-17T00:24:15.292Z,11.42
2017-10-17T00:24:19.657Z,11.41
2017-10-17T00:24:23.753Z,11.41
2017-10-17T00:24:27.855Z,11.41
2017-10-17T00:24:31.952Z,11.42
2017-10-17T00:24:36.054Z,11.45
2017-10-17T00:24:40.412Z,11.39
2017-10-17T00:24:44.802Z,11.39
2017-10-17T00:24:49.031Z,11.44
2017-10-17T00:24:53.254Z,11.38
2017-10-17T00:24:57.617Z,11.44
2017-10-17T00:25:02.119Z,11.39
2017-10-17T00:25:06.224Z,11.49
2017-10-17T00:25:10.455Z,11.42
2017-10-17T00:25:14.556Z,11.38
2017-10-17T00:25:18.658Z,11.39
2017-10-17T00:25:22.888Z,11.41
2017-10-17T00:25:26.991Z,11.44
2017-10-17T00:25:31.352Z,11.44
2017-10-17T00:25:35.318Z,11.38
2017-10-17T00:25:39.413Z,11.42
2017-10-17T00:25:43.515Z,11.38
2017-10-17T00:25:47.743Z,11.35
2017-10-17T00:25:51.580Z,11.42
2017-10-17T00:25:55.818Z,11.39
2017-10-17T00:25:59.657Z,11.44
2017-10-17T00:26:03.753Z,11.45
2017-10-17T00:26:07.719Z,11.39
2017-10-17T00:26:11.944Z,11.45
2017-10-17T00:26:16.035Z,11.39
2017-10-17T00:26:20.002Z,11.38
2017-10-17T00:26:24.244Z,11.38
2017-10-17T00:26:28.343Z,11.41
2017-10-17T00:26:32.451Z,11.41
2017-10-17T00:26:36.684Z,11.39
2017-10-17T00:26:40.783Z,11.44
2017-10-17T00:26:45.146Z,11.41
2017-10-17T00:26:49.241Z,11.39
2017-10-17T00:26:53.339Z,11.42
2017-10-17T00:26:57.699Z,11.38
2017-10-17T00:27:02.061Z,11.35
2017-10-17T00:27:06.322Z,11.39
2017-10-17T00:27:10.545Z,11.44
2017-10-17T00:27:14.775Z,11.38
2017-10-17T00:27:19.274Z,11.45
2017-10-17T00:27:23.241Z,11.41
2017-10-17T00:27:27.482Z,11.44
2017-10-17T00:27:31.583Z,11.35
2017-10-17T00:27:35.684Z,11.41
2017-10-17T00:27:40.049Z,11.35
2017-10-17T00:27:44.282Z,11.39
2017-10-17T00:27:48.378Z,11.44
2017-10-17T00:27:52.612Z,11.44
2017-10-17T00:27:56.718Z,11.41
2017-10-17T00:28:01.081Z,11.38
2017-10-17T00:28:05.445Z,11.41
2017-10-17T00:28:09.418Z,11.38
2017-10-17T00:28:13.515Z,11.38
2017-10-17T00:28:17.750Z,11.41
2017-10-17T00:28:21.720Z,11.31
2017-10-17T00:28:26.084Z,11.27
2017-10-17T00:28:30.311Z,11.42
2017-10-17T00:28:34.548Z,11.41
2017-10-17T00:28:38.645Z,11.39
2017-10-17T00:28:42.617Z,11.41
2017-10-17T00:28:46.860Z,11.41
2017-10-17T00:28:51.227Z,11.31
2017-10-17T00:28:55.456Z,11.33
2017-10-17T00:28:59.552Z,11.41
2017-10-17T00:29:03.993Z,11.38
2017-10-17T00:29:08.218Z,11.44
2017-10-17T00:29:12.186Z,11.39
2017-10-17T00:29:16.292Z,11.38
2017-10-17T00:29:20.389Z,11.39
2017-10-17T00:29:24.620Z,11.36
2017-10-17T00:29:28.987Z,11.36
2017-10-17T00:29:33.095Z,11.33
2017-10-17T00:29:37.192Z,11.33
2017-10-17T00:29:41.548Z,11.33
2017-10-17T00:29:45.516Z,11.36
2017-10-17T00:29:49.482Z,11.31
2017-10-17T00:29:53.978Z,11.36
2017-10-17T00:29:58.210Z,11.3
2017-10-17T00:30:02.182Z,11.36
2017-10-17T00:30:06.807Z,11.39
2017-10-17T00:30:11.040Z,11.39
2017-10-17T00:30:15.272Z,11.36
2017-10-17T00:30:19.367Z,11.36
2017-10-17T00:30:23.469Z,11.39
2017-10-17T00:30:28.015Z,11.38
2017-10-17T00:30:32.251Z,11.41
2017-10-17T00:30:36.615Z,11.31
2017-10-17T00:30:40.452Z,11.36
2017-10-17T00:30:44.725Z,11.42
2017-10-17T00:30:48.948Z,11.39
2017-10-17T00:30:53.179Z,11.3
2017-10-17T00:30:57.541Z,11.39
2017-10-17T00:31:02.253Z,11.38
2017-10-17T00:31:06.226Z,11.38
2017-10-17T00:31:10.327Z,11.35
2017-10-17T00:31:14.685Z,11.3
2017-10-17T00:31:18.917Z,11.33
2017-10-17T00:31:22.885Z,11.35
2017-10-17T00:31:26.988Z,11.36
2017-10-17T00:31:30.949Z,11.39
2017-10-17T00:31:34.917Z,11.38
2017-10-17T00:31:39.152Z,11.3
2017-10-17T00:31:43.252Z,11.33
2017-10-17T00:31:47.350Z,11.31
2017-10-17T00:31:51.578Z,11.35
2017-10-17T00:31:55.812Z,11.38
2017-10-17T00:32:00.302Z,11.41
2017-10-17T00:32:04.483Z,11.31
2017-10-17T00:32:08.842Z,11.35
2017-10-17T00:32:13.198Z,11.3
2017-10-17T00:32:17.426Z,11.38
2017-10-17T00:32:21.531Z,11.36
2017-10-17T00:32:25.625Z,11.41
2017-10-17T00:32:29.720Z,11.35
2017-10-17T00:32:34.080Z,11.36
2017-10-17T00:32:38.318Z,11.35
2017-10-17T00:32:42.295Z,11.31
2017-10-17T00:32:46.530Z,11.38
2017-10-17T00:32:50.634Z,11.39
2017-10-17T00:32:54.864Z,11.41
2017-10-17T00:32:59.230Z,11.35
2017-10-17T00:33:03.879Z,11.35
2017-10-17T00:33:08.239Z,11.44
2017-10-17T00:33:12.602Z,11.35
2017-10-17T00:33:16.705Z,11.36
2017-10-17T00:33:21.079Z,11.38
2017-10-17T00:33:25.707Z,11.38
2017-10-17T00:33:30.065Z,11.33
2017-10-17T00:33:34.294Z,11.36
2017-10-17T00:33:38.788Z,11.33
2017-10-17T00:33:42.898Z,11.35
2017-10-17T00:33:47.261Z,11.33
2017-10-17T00:33:51.625Z,11.39
2017-10-17T00:33:55.718Z,11.33
2017-10-17T00:33:59.951Z,11.33
2017-10-17T00:34:04.183Z,11.35
2017-10-17T00:34:08.668Z,11.36
2017-10-17T00:34:12.896Z,11.31
2017-10-17T00:34:17.126Z,11.38
2017-10-17T00:34:21.622Z,11.35
2017-10-17T00:34:25.978Z,11.36
2017-10-17T00:34:30.347Z,11.31
2017-10-17T00:34:34.740Z,11.44
2017-10-17T00:34:38.841Z,11.35
2017-10-17T00:34:43.203Z,11.38
2017-10-17T00:34:47.575Z,11.33
2017-10-17T00:34:51.670Z,11.42
2017-10-17T00:34:55.506Z,11.3
2017-10-17T00:34:59.609Z,11.36
2017-10-17T00:35:04.063Z,11.39
2017-10-17T00:35:08.158Z,11.33
2017-10-17T00:35:12.255Z,11.36
2017-10-17T00:35:16.352Z,11.38
2017-10-17T00:35:20.449Z,11.38
2017-10-17T00:35:24.546Z,11.3
2017-10-17T00:35:28.645Z,11.27
2017-10-17T00:35:32.747Z,11.36
2017-10-17T00:35:37.105Z,11.33
2017-10-17T00:35:41.489Z,11.28
2017-10-17T00:35:45.720Z,11.36
2017-10-17T00:35:49.833Z,11.31
2017-10-17T00:35:54.059Z,11.3
2017-10-17T00:35:58.729Z,11.36
2017-10-17T00:36:03.195Z,11.3
2017-10-17T00:36:07.301Z,11.31
2017-10-17T00:36:11.545Z,11.35
2017-10-17T00:36:15.503Z,11.36
2017-10-17T00:36:19.601Z,11.31
2017-10-17T00:36:23.566Z,11.33
2017-10-17T00:36:27.679Z,11.38
2017-10-17T00:36:32.046Z,11.36
2017-10-17T00:36:36.685Z,11.35
2017-10-17T00:36:40.782Z,11.26
2017-10-17T00:36:45.023Z,11.35
2017-10-17T00:36:49.259Z,11.35
2017-10-17T00:36:53.228Z,11.36
2017-10-17T00:36:57.713Z,11.36
2017-10-17T00:37:01.940Z,11.36
2017-10-17T00:37:06.177Z,11.28
2017-10-17T00:37:10.407Z,11.31
2017-10-17T00:37:14.505Z,11.36
2017-10-17T00:37:18.863Z,11.33
2017-10-17T00:37:23.096Z,11.38
2017-10-17T00:37:27.328Z,11.3
2017-10-17T00:37:31.552Z,11.31
2017-10-17T00:37:35.920Z,11.31
2017-10-17T00:37:40.288Z,11.33
2017-10-17T00:37:44.262Z,11.31
2017-10-17T00:37:48.628Z,11.31
2017-10-17T00:37:52.865Z,11.36
2017-10-17T00:37:57.230Z,11.3
2017-10-17T00:38:01.788Z,11.31
2017-10-17T00:38:06.025Z,11.31
2017-10-17T00:38:10.384Z,11.3
2017-10-17T00:38:14.481Z,11.31
2017-10-17T00:38:18.710Z,11.3
2017-10-17T00:38:22.671Z,11.3
2017-10-17T00:38:26.510Z,11.31
2017-10-17T00:38:30.876Z,11.28
2017-10-17T00:38:35.238Z,11.3
2017-10-17T00:38:39.476Z,11.28
2017-10-17T00:38:43.970Z,11.28
2017-10-17T00:38:48.333Z,11.26
2017-10-17T00:38:52.473Z,11.31
2017-10-17T00:38:56.572Z,11.3
2017-10-17T00:39:00.801Z,11.31
2017-10-17T00:39:05.304Z,11.31
2017-10-17T00:39:09.545Z,11.26
2017-10-17T00:39:14.048Z,11.26
2017-10-17T00:39:18.410Z,11.3
2017-10-17T00:39:22.503Z,11.31
2017-10-17T00:39:26.604Z,11.31
2017-10-17T00:39:30.835Z,11.28
2017-10-17T00:39:35.192Z,11.28
2017-10-17T00:39:39.420Z,11.31
2017-10-17T00:39:43.390Z,11.28
2017-10-17T00:39:47.356Z,11.27
2017-10-17T00:39:51.590Z,11.28
2017-10-17T00:39:55.817Z,11.28
2017-10-17T00:40:00.052Z,11.3
2017-10-17T00:40:04.894Z,11.28
2017-10-17T00:40:09.134Z,11.28
2017-10-17T00:40:13.238Z,11.28
2017-10-17T00:40:17.472Z,11.27
2017-10-17T00:40:21.704Z,11.33
2017-10-17T00:40:25.928Z,11.28
2017-10-17T00:40:30.325Z,11.31
2017-10-17T00:40:34.421Z,11.33
2017-10-17T00:40:38.788Z,11.31
2017-10-17T00:40:43.154Z,11.35
2017-10-17T00:40:47.388Z,11.31
2017-10-17T00:40:51.496Z,11.28
2017-10-17T00:40:55.731Z,11.28
2017-10-17T00:40:59.823Z,11.28
2017-10-17T00:41:04.204Z,11.27
2017-10-17T00:41:08.432Z,11.35
2017-10-17T00:41:12.530Z,11.31
2017-10-17T00:41:16.625Z,11.27
2017-10-17T00:41:20.860Z,11.28
2017-10-17T00:41:24.957Z,11.3
2017-10-17T00:41:28.923Z,11.28
2017-10-17T00:41:33.022Z,11.28
2017-10-17T00:41:36.987Z,11.3
2017-10-17T00:41:41.234Z,11.28
2017-10-17T00:41:45.332Z,11.27
2017-10-17T00:41:49.298Z,11.28
2017-10-17T00:41:53.543Z,11.26
2017-10-17T00:41:57.640Z,11.23
2017-10-17T00:42:02.001Z,11.27
2017-10-17T00:42:06.214Z,11.26
2017-10-17T00:42:10.440Z,11.26
2017-10-17T00:42:14.797Z,11.27
2017-10-17T00:42:18.764Z,11.19
2017-10-17T00:42:22.998Z,11.23
2017-10-17T00:42:27.357Z,11.26
2017-10-17T00:42:31.592Z,11.16
2017-10-17T00:42:35.822Z,11.26
2017-10-17T00:42:40.048Z,11.3
2017-10-17T00:42:44.275Z,11.24
2017-10-17T00:42:48.509Z,11.26
2017-10-17T00:42:52.605Z,11.19
2017-10-17T00:42:56.568Z,11.2
2017-10-17T00:43:00.805Z,11.28
2017-10-17T00:43:05.164Z,11.3
2017-10-17T00:43:09.530Z,11.27
2017-10-17T00:43:13.492Z,11.23
2017-10-17T00:43:17.986Z,11.13
2017-10-17T00:43:22.487Z,11.28
2017-10-17T00:43:26.718Z,11.26
2017-10-17T00:43:30.949Z,11.27
2017-10-17T00:43:35.187Z,11.3
2017-10-17T00:43:39.286Z,11.28
2017-10-17T00:43:43.254Z,11.2
2017-10-17T00:43:47.349Z,11.17
2017-10-17T00:43:51.578Z,11.2
2017-10-17T00:43:55.546Z,11.13
2017-10-17T00:43:59.381Z,11.28
2017-10-17T00:44:03.965Z,11.27
2017-10-17T00:44:08.471Z,11.26
2017-10-17T00:44:12.836Z,11.13
2017-10-17T00:44:16.806Z,11.24
2017-10-17T00:44:20.772Z,11.19
2017-10-17T00:44:24.741Z,11.26
2017-10-17T00:44:28.841Z,11.26
2017-10-17T00:44:32.939Z,11.27
2017-10-17T00:44:37.182Z,11.19
2017-10-17T00:44:41.150Z,11.16
2017-10-17T00:44:45.252Z,11.2
2017-10-17T00:44:49.617Z,11.24
2017-10-17T00:44:53.864Z,11.16
2017-10-17T00:44:57.835Z,11.26
2017-10-17T00:45:01.936Z,11.19
2017-10-17T00:45:06.033Z,11.3
2017-10-17T00:45:10.266Z,11.28
2017-10-17T00:45:14.109Z,11.19
2017-10-17T00:45:18.350Z,11.17
2017-10-17T00:45:22.306Z,11.28
2017-10-17T00:45:26.541Z,11.12
2017-10-17T00:45:30.779Z,11.2
2017-10-17T00:45:34.873Z,11.13
2017-10-17T00:45:38.713Z,11.2
2017-10-17T00:45:43.085Z,11.13
2017-10-17T00:45:47.318Z,11.17
2017-10-17T00:45:51.543Z,11.17
2017-10-17T00:45:55.781Z,11.17
2017-10-17T00:46:00.008Z,11.13
2017-10-17T00:46:04.117Z,11.21
2017-10-17T00:46:08.100Z,11.17
2017-10-17T00:46:12.446Z,11.24
2017-10-17T00:46:16.800Z,11.16
2017-10-17T00:46:20.763Z,11.19
2017-10-17T00:46:25.161Z,11.24
2017-10-17T00:46:29.260Z,11.26
2017-10-17T00:46:33.492Z,11.13
2017-10-17T00:46:37.855Z,11.12
2017-10-17T00:46:42.085Z,11.3
2017-10-17T00:46:46.441Z,11.17
2017-10-17T00:46:50.672Z,11.16
2017-10-17T00:46:55.034Z,11.21
2017-10-17T00:46:59.528Z,11.21
2017-10-17T00:47:03.842Z,11.13
2017-10-17T00:47:08.088Z,11.26
2017-10-17T00:47:12.185Z,11.17
2017-10-17T00:47:16.285Z,11.2
2017-10-17T00:47:20.523Z,11.13
2017-10-17T00:47:24.500Z,11.21
2017-10-17T00:47:28.725Z,11.2
2017-10-17T00:47:32.949Z,11.26
2017-10-17T00:47:37.181Z,11.2
2017-10-17T00:47:41.428Z,11.21
2017-10-17T00:47:45.794Z,11.21
2017-10-17T00:47:49.890Z,11.2
2017-10-17T00:47:54.257Z,11.21
2017-10-17T00:47:58.490Z,11.16
2017-10-17T00:48:02.715Z,11.23
2017-10-17T00:48:06.829Z,11.2
2017-10-17T00:48:11.059Z,11.2
2017-10-17T00:48:15.427Z,11.17
2017-10-17T00:48:19.656Z,11.21
2017-10-17T00:48:23.753Z,11.21
2017-10-17T00:48:27.990Z,11.21
2017-10-17T00:48:32.215Z,11.19
2017-10-17T00:48:36.449Z,11.19
2017-10-17T00:48:40.572Z,11.2
2017-10-17T00:48:44.808Z,11.19
2017-10-17T00:48:49.044Z,11.24
2017-10-17T00:48:53.012Z,11.19
2017-10-17T00:48:57.244Z,11.26
2017-10-17T00:49:01.481Z,11.24
2017-10-17T00:49:05.867Z,11.13
2017-10-17T00:49:09.963Z,11.2
2017-10-17T00:49:13.928Z,11.17
2017-10-17T00:49:18.156Z,11.2
2017-10-17T00:49:22.261Z,11.21
2017-10-17T00:49:26.364Z,11.19
2017-10-17T00:49:30.331Z,11.17
2017-10-17T00:49:34.557Z,11.2
2017-10-17T00:49:38.785Z,11.21
2017-10-17T00:49:43.019Z,11.19
2017-10-17T00:49:47.509Z,11.21
2017-10-17T00:49:51.744Z,11.19
2017-10-17T00:49:55.972Z,11.2
2017-10-17T00:50:00.196Z,11.2
2017-10-17T00:50:04.760Z,11.21
2017-10-17T00:50:08.993Z,11.21
2017-10-17T00:50:13.215Z,11.17
2017-10-17T00:50:17.445Z,11.2
2017-10-17T00:50:21.548Z,11.23
2017-10-17T00:50:25.508Z,11.17
2017-10-17T00:50:29.472Z,11.21
2017-10-17T00:50:33.700Z,11.2
2017-10-17T00:50:37.666Z,11.21
2017-10-17T00:50:41.634Z,11.2
2017-10-17T00:50:45.742Z,11.12
2017-10-17T00:50:50.117Z,11.13
2017-10-17T00:50:54.347Z,11.17
2017-10-17T00:50:58.707Z,11.21
2017-10-17T00:51:02.977Z,11.17
2017-10-17T00:51:07.208Z,11.13
2017-10-17T00:51:11.318Z,11.2
2017-10-17T00:51:15.681Z,11.2
2017-10-17T00:51:20.057Z,11.17
2017-10-17T00:51:24.152Z,11.11
2017-10-17T00:51:28.377Z,11.2
2017-10-17T00:51:32.346Z,11.16
2017-10-17T00:51:36.482Z,11.13
2017-10-17T00:51:40.857Z,11.12
2017-10-17T00:51:45.091Z,11.12
2017-10-17T00:51:48.923Z,11.16
2017-10-17T00:51:53.284Z,11.13
2017-10-17T00:51:57.120Z,11.16
2017-10-17T00:52:01.925Z,11.12
2017-10-17T00:52:05.757Z,11.2
2017-10-17T00:52:09.854Z,11.12
2017-10-17T00:52:14.217Z,11.08
2017-10-17T00:52:18.180Z,11.13
2017-10-17T00:52:22.287Z,11.17
2017-10-17T00:52:26.381Z,11.08
2017-10-17T00:52:30.349Z,11.08
2017-10-17T00:52:34.843Z,11.12
2017-10-17T00:52:39.073Z,11.09
2017-10-17T00:52:43.175Z,11.06
2017-10-17T00:52:47.277Z,11.08
2017-10-17T00:52:51.777Z,11.17
2017-10-17T00:52:56.133Z,11.08
2017-10-17T00:53:00.357Z,11.12
2017-10-17T00:53:04.703Z,11.08
2017-10-17T00:53:09.057Z,11.12
2017-10-17T00:53:13.157Z,11.12
2017-10-17T00:53:17.663Z,11.05
2017-10-17T00:53:22.021Z,11.12
2017-10-17T00:53:26.513Z,11.02
2017-10-17T00:53:30.764Z,11.06
2017-10-17T00:53:34.869Z,11.08
2017-10-17T00:53:39.095Z,11.12
2017-10-17T00:53:43.072Z,11.09
2017-10-17T00:53:47.431Z,11.03
2017-10-17T00:53:51.529Z,11.08
2017-10-17T00:53:55.763Z,11.05
2017-10-17T00:53:59.860Z,11.03
2017-10-17T00:54:04.401Z,11.09
2017-10-17T00:54:08.501Z,11.06
2017-10-17T00:54:12.595Z,11.06
2017-10-17T00:54:16.826Z,11.11
2017-10-17T00:54:21.318Z,11.06
2017-10-17T00:54:25.550Z,11.02